VTBSVNKT

Guest
Details From VTBS - Bangkok Suvarnabhumi Intl
To VNKT - Kathmandu Tribhuvan Intl
Flight Number -
Tags Generated
Created
Modified
Stats Distance 1,203 nm / 2,228 km
Max Altitude 0 ft / 0 m
Waypoints 5
Social Downloads 2
Likes 0
Share VATSIM

Download

Looking for another format? Having issues loading an existing format? Contact us
Advertisement - Login to hide

Notes

Generated

Route

VTBS PA CTG30 KAM16 VNKT

ID Type Via Altitude Latitude Longitude Leg Dist Tot Dist Heading (true) Name
O VTBS APT - 0 ft / 0 m 13.70327˚ 100.74297˚ - 0 nm - -
PA NDB - 0 ft / 0 m 16.89300˚ 97.67467˚ 261 nm 261 nm 318° / 317° HPA AN NDB
CTG30 FIX - 0 ft / 0 m 22.29323˚ 91.86563˚ 461 nm 722 nm 316° / 314° -
KAM16 FIX - 0 ft / 0 m 27.67070˚ 85.36706˚ 478 nm 1201 nm 314° / 311° -
O VNKT APT - 0 ft / 0 m 27.68381˚ 85.35342˚ 1 nm 1202 nm 317° / 317° -

Altitude Profile

Advertisement - Login to hide

Weather


0- 5 10 15 20 25 30 35+ Temperature / ° C

Clouds and Precipitation
Forecast for 2018-05-28 00:00 UTC. Updated an hour ago

Ground ~20,000 ft ~40,000 ft Winds

VTBS

Details ICAO VTBS (BKK)
Name Bangkok Suvarnabhumi Intl
Region Thailand
Timezone Asia/Bangkok (UTC+7.0)
Stats Elevation 5 ft / 2 m (AMSL)
Location 13.680456° 100.747512°
Runways 2
Magnetic Variation 0.569° W

METAR

VTBS 280000Z 09005KT 060V140 9999 FEW020 27/23 Q1010 NOSIG

Decode

TAF

TAF VTBS 272300Z 2800/2906 08005KT 9999 FEW020 BECMG 2803/2805 18010KT TEMPO 2808/2813 VRB12KT 5000 TSRA FEW018CB SCT035 BKN100 BECMG 2818/2820 10005KT BECMG 2902/2904 18010KT

Decode

Departure Runways

ID Width Length Bearing (true) Bearing (mag) Surface Threshold Offset Overrun Length
01L 200 ft / 61 m 12,194 ft / 3,717 m 14.26° 14.83° Asphalt 0 ft / 0 m 400 ft / 122 m
01R 200 ft / 61 m 13,181 ft / 4,018 m 14.19° 14.76° Asphalt 0 ft / 0 m 400 ft / 122 m
19L 200 ft / 61 m 13,181 ft / 4,018 m 194.19° 194.76° Asphalt 0 ft / 0 m 400 ft / 122 m
19R 200 ft / 61 m 12,194 ft / 3,717 m 194.26° 194.83° Asphalt 0 ft / 0 m 400 ft / 122 m

VNKT

Details ICAO VNKT (KTM)
Name Kathmandu Tribhuvan Intl
Region Nepal
Timezone Asia/Kathmandu (UTC+5.8)
Stats Elevation 4,390 ft / 1,338 m (AMSL)
Location 27.696583° 85.359100°
Runways 1
Magnetic Variation 0.514° E

METAR

VNKT 272350Z 11003KT 6000 FEW015 16/14 Q1011 NOSIG

Decode

TAF

TAF VNKT 272300Z 2800/2824 VRB02KT 3000 BR FEW010 SCT100 PROB40 2801/2803 2000 BR BECMG 2804/2805 13004KT 6000 FEW015 SCT030 BECMG 2807/2808 28010KT 7000 FEW020 SCT030 BKN100 PROB40 2808/2814 30012KT 4000 -TSRA FEW025CB BECMG 2814/2815 10003KT 6000 FEW020 SCT030

Decode

Destination Runways

ID Width Length Bearing (true) Bearing (mag) Surface Threshold Offset Overrun Length
02 148 ft / 45 m 10,017 ft / 3,053 m 21.50° 20.99° Asphalt 0 ft / 0 m 0 ft / 0 m
20 148 ft / 45 m 10,017 ft / 3,053 m 201.51° 201.00° Asphalt 400 ft / 122 m 0 ft / 0 m

Popular Alternatives